sensor_id;sensor_type;location;lat;lon;timestamp;pressure;altitude;pressure_sealevel;temperature;humidity
20620;BME280;10469;42.720;23.252;2023-03-21T00:00:15;94716.88;;;11.27;100.00
20620;BME280;10469;42.720;23.252;2023-03-21T00:02:40;94709.13;;;11.31;100.00
20620;BME280;10469;42.720;23.252;2023-03-21T00:05:06;94707.69;;;11.07;100.00
20620;BME280;10469;42.720;23.252;2023-03-21T00:07:32;94720.03;;;11.08;100.00
20620;BME280;10469;42.720;23.252;2023-03-21T00:09:57;94711.50;;;11.11;100.00
20620;BME280;10469;42.720;23.252;2023-03-21T00:12:23;94703.59;;;11.04;100.00
20620;BME280;10469;42.720;23.252;2023-03-21T00:14:48;94678.91;;;11.02;100.00
20620;BME280;10469;42.720;23.252;2023-03-21T00:17:15;94717.44;;;11.29;100.00
20620;BME280;10469;42.720;23.252;2023-03-21T00:19:41;94687.91;;;10.96;100.00
20620;BME280;10469;42.720;23.252;2023-03-21T00:22:06;94709.97;;;11.15;100.00
20620;BME280;10469;42.720;23.252;2023-03-21T00:24:33;94717.63;;;11.23;100.00
20620;BME280;10469;42.720;23.252;2023-03-21T00:26:58;94707.09;;;11.04;100.00
20620;BME280;10469;42.720;23.252;2023-03-21T00:29:24;94711.50;;;11.11;100.00
20620;BME280;10469;42.720;23.252;2023-03-21T00:31:50;94710.78;;;10.98;100.00
20620;BME280;10469;42.720;23.252;2023-03-21T00:34:15;94718.16;;;11.08;100.00
20620;BME280;10469;42.720;23.252;2023-03-21T00:36:41;94711.66;;;11.04;100.00
20620;BME280;10469;42.720;23.252;2023-03-21T00:39:07;94711.44;;;11.05;100.00
20620;BME280;10469;42.720;23.252;2023-03-21T00:41:32;94693.78;;;10.93;100.00
20620;BME280;10469;42.720;23.252;2023-03-21T00:43:58;94690.25;;;10.92;100.00
20620;BME280;10469;42.720;23.252;2023-03-21T00:46:24;94699.69;;;10.95;100.00
20620;BME280;10469;42.720;23.252;2023-03-21T00:48:49;94695.63;;;10.92;100.00
20620;BME280;10469;42.720;23.252;2023-03-21T00:51:20;94708.22;;;10.92;100.00
20620;BME280;10469;42.720;23.252;2023-03-21T00:53:54;94697.41;;;10.87;100.00
20620;BME280;10469;42.720;23.252;2023-03-21T00:56:20;94693.44;;;10.72;100.00
20620;BME280;10469;42.720;23.252;2023-03-21T00:58:46;94712.44;;;10.88;100.00
20620;BME280;10469;42.720;23.252;2023-03-21T01:01:11;94700.91;;;10.87;100.00
20620;BME280;10469;42.720;23.252;2023-03-21T01:03:37;94700.00;;;10.82;100.00
20620;BME280;10469;42.720;23.252;2023-03-21T01:06:10;94685.81;;;10.52;100.00
20620;BME280;10469;42.720;23.252;2023-03-21T01:08:42;94693.13;;;10.57;100.00
20620;BME280;10469;42.720;23.252;2023-03-21T01:11:11;94692.56;;;10.26;100.00
20620;BME280;10469;42.720;23.252;2023-03-21T01:13:38;94700.06;;;10.24;100.00
20620;BME280;10469;42.720;23.252;2023-03-21T01:16:05;94689.69;;;10.16;100.00
20620;BME280;10469;42.720;23.252;2023-03-21T01:18:31;94685.47;;;10.20;100.00
20620;BME280;10469;42.720;23.252;2023-03-21T01:20:59;94688.97;;;10.33;100.00
20620;BME280;10469;42.720;23.252;2023-03-21T01:23:26;94686.59;;;10.36;100.00
20620;BME280;10469;42.720;23.252;2023-03-21T01:25:54;94674.59;;;10.39;100.00
20620;BME280;10469;42.720;23.252;2023-03-21T01:28:19;94687.84;;;10.45;100.00
20620;BME280;10469;42.720;23.252;2023-03-21T01:30:46;94696.22;;;10.49;100.00
20620;BME280;10469;42.720;23.252;2023-03-21T01:33:13;94696.63;;;10.58;100.00
20620;BME280;10469;42.720;23.252;2023-03-21T01:35:39;94698.13;;;10.65;100.00
20620;BME280;10469;42.720;23.252;2023-03-21T01:38:05;94689.13;;;10.43;100.00
20620;BME280;10469;42.720;23.252;2023-03-21T01:40:31;94688.41;;;10.47;100.00
20620;BME280;10469;42.720;23.252;2023-03-21T01:42:56;94671.78;;;10.45;100.00
20620;BME280;10469;42.720;23.252;2023-03-21T01:48:26;94687.16;;;10.84;100.00
20620;BME280;10469;42.720;23.252;2023-03-21T01:50:54;94677.38;;;10.61;100.00
20620;BME280;10469;42.720;23.252;2023-03-21T01:53:23;94675.03;;;10.64;100.00
20620;BME280;10469;42.720;23.252;2023-03-21T01:55:57;94678.41;;;10.71;100.00
20620;BME280;10469;42.720;23.252;2023-03-21T01:58:26;94680.00;;;10.72;100.00
20620;BME280;10469;42.720;23.252;2023-03-21T02:00:52;94679.53;;;10.75;100.00
20620;BME280;10469;42.720;23.252;2023-03-21T02:03:19;94664.31;;;10.64;100.00
20620;BME280;10469;42.720;23.252;2023-03-21T02:05:57;94679.84;;;10.62;100.00
20620;BME280;10469;42.720;23.252;2023-03-21T02:08:24;94686.75;;;10.58;100.00
20620;BME280;10469;42.720;23.252;2023-03-21T02:10:50;94673.13;;;10.48;100.00
20620;BME280;10469;42.720;23.252;2023-03-21T02:13:16;94678.47;;;10.31;100.00
20620;BME280;10469;42.720;23.252;2023-03-21T02:15:48;94662.03;;;10.27;100.00
20620;BME280;10469;42.720;23.252;2023-03-21T02:18:26;94674.03;;;10.37;100.00
20620;BME280;10469;42.720;23.252;2023-03-21T02:24:13;94666.75;;;10.09;100.00
20620;BME280;10469;42.720;23.252;2023-03-21T02:38:04;94658.53;;;9.98;100.00
20620;BME280;10469;42.720;23.252;2023-03-21T02:45:47;94676.84;;;10.18;100.00
20620;BME280;10469;42.720;23.252;2023-03-21T02:48:28;94672.69;;;10.11;100.00
20620;BME280;10469;42.720;23.252;2023-03-21T02:50:59;94668.63;;;10.08;100.00
20620;BME280;10469;42.720;23.252;2023-03-21T02:53:29;94672.56;;;10.05;100.00
20620;BME280;10469;42.720;23.252;2023-03-21T02:55:56;94661.41;;;9.97;100.00
20620;BME280;10469;42.720;23.252;2023-03-21T02:58:24;94669.59;;;10.02;100.00
20620;BME280;10469;42.720;23.252;2023-03-21T03:00:52;94647.28;;;9.85;100.00
20620;BME280;10469;42.720;23.252;2023-03-21T03:03:21;94665.63;;;9.93;100.00
20620;BME280;10469;42.720;23.252;2023-03-21T03:05:51;94671.66;;;10.00;100.00
20620;BME280;10469;42.720;23.252;2023-03-21T03:08:45;94657.84;;;9.91;100.00
20620;BME280;10469;42.720;23.252;2023-03-21T03:11:34;94655.69;;;9.65;100.00
20620;BME280;10469;42.720;23.252;2023-03-21T03:19:25;94675.94;;;9.72;100.00
20620;BME280;10469;42.720;23.252;2023-03-21T03:22:05;94673.84;;;9.63;100.00
20620;BME280;10469;42.720;23.252;2023-03-21T03:24:45;94686.31;;;9.69;100.00
20620;BME280;10469;42.720;23.252;2023-03-21T03:27:28;94689.94;;;9.51;100.00
20620;BME280;10469;42.720;23.252;2023-03-21T03:29:58;94677.50;;;9.33;100.00
20620;BME280;10469;42.720;23.252;2023-03-21T03:32:29;94674.81;;;9.21;100.00
20620;BME280;10469;42.720;23.252;2023-03-21T03:34:57;94654.81;;;9.12;100.00
20620;BME280;10469;42.720;23.252;2023-03-21T03:37:26;94680.50;;;8.90;100.00
20620;BME280;10469;42.720;23.252;2023-03-21T03:39:59;94685.81;;;8.78;100.00
20620;BME280;10469;42.720;23.252;2023-03-21T03:42:34;94683.19;;;8.90;100.00
20620;BME280;10469;42.720;23.252;2023-03-21T03:45:00;94670.28;;;8.98;100.00
20620;BME280;10469;42.720;23.252;2023-03-21T03:50:08;94663.91;;;9.11;100.00
20620;BME280;10469;42.720;23.252;2023-03-21T03:52:39;94666.91;;;9.15;100.00
20620;BME280;10469;42.720;23.252;2023-03-21T03:55:10;94664.13;;;9.21;100.00
20620;BME280;10469;42.720;23.252;2023-03-21T03:57:38;94653.06;;;9.18;100.00
20620;BME280;10469;42.720;23.252;2023-03-21T04:00:05;94670.84;;;9.36;100.00
20620;BME280;10469;42.720;23.252;2023-03-21T04:02:36;94659.56;;;9.22;100.00
20620;BME280;10469;42.720;23.252;2023-03-21T04:05:01;94661.31;;;9.28;100.00
20620;BME280;10469;42.720;23.252;2023-03-21T04:07:28;94677.94;;;9.07;100.00
20620;BME280;10469;42.720;23.252;2023-03-21T04:09:54;94670.75;;;9.07;100.00
20620;BME280;10469;42.720;23.252;2023-03-21T04:12:20;94662.25;;;8.98;100.00
20620;BME280;10469;42.720;23.252;2023-03-21T04:14:45;94666.56;;;9.11;100.00
20620;BME280;10469;42.720;23.252;2023-03-21T04:17:11;94672.50;;;9.13;100.00
20620;BME280;10469;42.720;23.252;2023-03-21T04:19:37;94665.25;;;9.02;100.00
20620;BME280;10469;42.720;23.252;2023-03-21T04:22:02;94643.78;;;8.85;100.00
20620;BME280;10469;42.720;23.252;2023-03-21T04:24:27;94664.69;;;8.88;100.00
20620;BME280;10469;42.720;23.252;2023-03-21T04:26:57;94641.56;;;8.82;100.00
20620;BME280;10469;42.720;23.252;2023-03-21T04:29:23;94657.84;;;8.39;100.00
20620;BME280;10469;42.720;23.252;2023-03-21T04:31:48;94637.66;;;8.43;100.00
20620;BME280;10469;42.720;23.252;2023-03-21T04:34:14;94667.28;;;8.53;100.00
20620;BME280;10469;42.720;23.252;2023-03-21T04:36:39;94666.38;;;8.59;100.00
20620;BME280;10469;42.720;23.252;2023-03-21T04:39:09;94664.50;;;8.48;100.00
20620;BME280;10469;42.720;23.252;2023-03-21T04:41:42;94669.63;;;8.61;100.00
20620;BME280;10469;42.720;23.252;2023-03-21T04:44:09;94666.19;;;8.84;100.00
20620;BME280;10469;42.720;23.252;2023-03-21T04:46:36;94667.81;;;8.97;100.00
20620;BME280;10469;42.720;23.252;2023-03-21T04:49:02;94671.69;;;9.24;100.00
20620;BME280;10469;42.720;23.252;2023-03-21T04:51:28;94677.38;;;9.51;100.00
20620;BME280;10469;42.720;23.252;2023-03-21T04:53:54;94660.22;;;9.76;100.00
20620;BME280;10469;42.720;23.252;2023-03-21T04:56:25;94664.69;;;9.99;100.00
20620;BME280;10469;42.720;23.252;2023-03-21T04:58:58;94673.31;;;10.41;100.00
20620;BME280;10469;42.720;23.252;2023-03-21T05:01:24;94667.06;;;10.24;100.00
20620;BME280;10469;42.720;23.252;2023-03-21T05:03:50;94663.22;;;10.48;100.00
20620;BME280;10469;42.720;23.252;2023-03-21T05:06:16;94662.56;;;10.01;100.00
20620;BME280;10469;42.720;23.252;2023-03-21T05:08:42;94674.94;;;10.02;100.00
20620;BME280;10469;42.720;23.252;2023-03-21T05:11:07;94678.06;;;10.11;100.00
20620;BME280;10469;42.720;23.252;2023-03-21T05:13:33;94673.28;;;10.01;100.00
20620;BME280;10469;42.720;23.252;2023-03-21T05:15:58;94667.47;;;10.04;100.00
20620;BME280;10469;42.720;23.252;2023-03-21T05:18:24;94674.97;;;9.78;100.00
20620;BME280;10469;42.720;23.252;2023-03-21T05:20:51;94670.53;;;9.20;100.00
20620;BME280;10469;42.720;23.252;2023-03-21T05:23:21;94679.22;;;9.39;100.00
20620;BME280;10469;42.720;23.252;2023-03-21T05:25:47;94668.13;;;9.71;100.00
20620;BME280;10469;42.720;23.252;2023-03-21T05:28:13;94680.41;;;9.95;100.00
20620;BME280;10469;42.720;23.252;2023-03-21T05:30:43;94666.50;;;9.82;100.00
20620;BME280;10469;42.720;23.252;2023-03-21T05:33:08;94684.94;;;9.43;100.00
20620;BME280;10469;42.720;23.252;2023-03-21T05:35:34;94689.00;;;9.45;100.00
20620;BME280;10469;42.720;23.252;2023-03-21T05:38:00;94690.41;;;9.48;100.00
20620;BME280;10469;42.720;23.252;2023-03-21T05:40:25;94691.78;;;9.27;100.00
20620;BME280;10469;42.720;23.252;2023-03-21T05:42:51;94680.25;;;9.73;100.00
20620;BME280;10469;42.720;23.252;2023-03-21T05:45:16;94681.00;;;9.97;100.00
20620;BME280;10469;42.720;23.252;2023-03-21T05:47:42;94662.88;;;10.16;100.00
20620;BME280;10469;42.720;23.252;2023-03-21T05:50:09;94670.63;;;10.01;100.00
20620;BME280;10469;42.720;23.252;2023-03-21T05:52:35;94676.50;;;10.26;100.00
20620;BME280;10469;42.720;23.252;2023-03-21T05:55:01;94661.16;;;10.67;100.00
20620;BME280;10469;42.720;23.252;2023-03-21T05:57:27;94668.78;;;10.59;100.00
20620;BME280;10469;42.720;23.252;2023-03-21T05:59:53;94670.66;;;11.09;100.00
20620;BME280;10469;42.720;23.252;2023-03-21T06:02:19;94662.00;;;11.18;100.00
20620;BME280;10469;42.720;23.252;2023-03-21T06:04:45;94648.06;;;11.60;100.00
20620;BME280;10469;42.720;23.252;2023-03-21T06:07:10;94646.13;;;11.55;100.00
20620;BME280;10469;42.720;23.252;2023-03-21T06:09:36;94663.75;;;11.29;100.00
20620;BME280;10469;42.720;23.252;2023-03-21T06:12:01;94661.13;;;11.90;100.00
20620;BME280;10469;42.720;23.252;2023-03-21T06:14:27;94644.59;;;13.17;100.00
20620;BME280;10469;42.720;23.252;2023-03-21T06:16:52;94663.03;;;13.67;100.00
20620;BME280;10469;42.720;23.252;2023-03-21T06:19:19;94651.09;;;13.53;100.00
20620;BME280;10469;42.720;23.252;2023-03-21T06:21:46;94651.72;;;13.70;100.00
20620;BME280;10469;42.720;23.252;2023-03-21T06:24:12;94648.31;;;13.05;100.00
20620;BME280;10469;42.720;23.252;2023-03-21T06:26:37;94645.97;;;12.55;100.00
20620;BME280;10469;42.720;23.252;2023-03-21T06:29:03;94645.06;;;12.44;100.00
20620;BME280;10469;42.720;23.252;2023-03-21T06:31:29;94637.19;;;12.38;100.00
20620;BME280;10469;42.720;23.252;2023-03-21T06:33:54;94625.50;;;12.81;100.00
20620;BME280;10469;42.720;23.252;2023-03-21T06:36:20;94625.03;;;12.08;100.00
20620;BME280;10469;42.720;23.252;2023-03-21T06:38:45;94647.50;;;11.97;100.00
20620;BME280;10469;42.720;23.252;2023-03-21T06:41:13;94652.25;;;12.12;100.00
20620;BME280;10469;42.720;23.252;2023-03-21T06:43:39;94644.63;;;12.03;100.00
20620;BME280;10469;42.720;23.252;2023-03-21T06:46:04;94658.09;;;11.87;100.00
20620;BME280;10469;42.720;23.252;2023-03-21T06:48:30;94667.56;;;11.50;100.00
20620;BME280;10469;42.720;23.252;2023-03-21T06:50:56;94658.91;;;11.87;100.00
20620;BME280;10469;42.720;23.252;2023-03-21T06:53:22;94658.38;;;11.85;100.00
20620;BME280;10469;42.720;23.252;2023-03-21T06:55:53;94664.88;;;11.72;100.00
20620;BME280;10469;42.720;23.252;2023-03-21T06:58:20;94672.94;;;11.89;100.00
20620;BME280;10469;42.720;23.252;2023-03-21T07:00:46;94674.53;;;11.51;100.00
20620;BME280;10469;42.720;23.252;2023-03-21T07:03:11;94663.19;;;11.27;100.00
20620;BME280;10469;42.720;23.252;2023-03-21T07:05:37;94673.97;;;11.49;100.00
20620;BME280;10469;42.720;23.252;2023-03-21T07:08:04;94661.31;;;11.84;100.00
20620;BME280;10469;42.720;23.252;2023-03-21T07:10:30;94666.19;;;12.30;100.00
20620;BME280;10469;42.720;23.252;2023-03-21T07:12:58;94649.53;;;12.34;100.00
20620;BME280;10469;42.720;23.252;2023-03-21T07:15:24;94674.84;;;12.38;100.00
20620;BME280;10469;42.720;23.252;2023-03-21T07:17:50;94671.25;;;12.54;100.00
20620;BME280;10469;42.720;23.252;2023-03-21T07:20:16;94649.69;;;12.49;100.00
20620;BME280;10469;42.720;23.252;2023-03-21T07:22:41;94677.94;;;13.11;100.00
20620;BME280;10469;42.720;23.252;2023-03-21T07:25:08;94672.69;;;13.63;100.00
20620;BME280;10469;42.720;23.252;2023-03-21T07:27:34;94667.75;;;13.45;100.00
20620;BME280;10469;42.720;23.252;2023-03-21T07:30:00;94668.50;;;13.83;98.89
20620;BME280;10469;42.720;23.252;2023-03-21T07:32:25;94664.16;;;13.76;99.26
20620;BME280;10469;42.720;23.252;2023-03-21T07:34:54;94653.38;;;13.76;98.56
20620;BME280;10469;42.720;23.252;2023-03-21T07:37:19;94666.41;;;13.95;98.07
20620;BME280;10469;42.720;23.252;2023-03-21T07:39:45;94646.38;;;13.80;98.65
20620;BME280;10469;42.720;23.252;2023-03-21T07:42:11;94657.50;;;13.47;99.20
20620;BME280;10469;42.720;23.252;2023-03-21T07:44:37;94663.19;;;13.13;100.00
20620;BME280;10469;42.720;23.252;2023-03-21T07:47:04;94659.06;;;13.38;100.00
20620;BME280;10469;42.720;23.252;2023-03-21T07:49:30;94672.59;;;13.43;99.64
20620;BME280;10469;42.720;23.252;2023-03-21T07:51:56;94682.19;;;13.34;100.00
20620;BME280;10469;42.720;23.252;2023-03-21T07:54:21;94668.06;;;13.53;100.00
20620;BME280;10469;42.720;23.252;2023-03-21T07:56:47;94677.22;;;13.52;100.00
20620;BME280;10469;42.720;23.252;2023-03-21T07:59:13;94663.72;;;13.47;100.00
20620;BME280;10469;42.720;23.252;2023-03-21T08:01:39;94678.25;;;13.94;97.89
20620;BME280;10469;42.720;23.252;2023-03-21T08:04:04;94667.31;;;13.63;99.92
20620;BME280;10469;42.720;23.252;2023-03-21T08:06:30;94673.84;;;14.30;98.69
20620;BME280;10469;42.720;23.252;2023-03-21T08:08:57;94671.97;;;14.41;94.61
20620;BME280;10469;42.720;23.252;2023-03-21T08:11:23;94665.13;;;14.08;95.50
20620;BME280;10469;42.720;23.252;2023-03-21T08:13:49;94629.25;;;14.07;96.26
20620;BME280;10469;42.720;23.252;2023-03-21T08:16:16;94666.66;;;14.61;95.17
20620;BME280;10469;42.720;23.252;2023-03-21T08:18:41;94667.06;;;14.22;96.08
20620;BME280;10469;42.720;23.252;2023-03-21T08:21:07;94649.94;;;14.69;93.21
20620;BME280;10469;42.720;23.252;2023-03-21T08:23:33;94665.34;;;14.89;92.57
20620;BME280;10469;42.720;23.252;2023-03-21T08:25:59;94666.97;;;15.62;91.58
20620;BME280;10469;42.720;23.252;2023-03-21T08:28:26;94661.84;;;15.70;89.60
20620;BME280;10469;42.720;23.252;2023-03-21T08:30:51;94660.66;;;14.39;94.81
20620;BME280;10469;42.720;23.252;2023-03-21T08:33:17;94637.97;;;14.35;95.04
20620;BME280;10469;42.720;23.252;2023-03-21T08:35:43;94649.16;;;14.69;94.98
20620;BME280;10469;42.720;23.252;2023-03-21T08:38:08;94652.84;;;14.47;96.31
20620;BME280;10469;42.720;23.252;2023-03-21T08:40:34;94652.72;;;14.12;96.76
20620;BME280;10469;42.720;23.252;2023-03-21T08:43:00;94655.94;;;14.03;98.06
20620;BME280;10469;42.720;23.252;2023-03-21T08:45:26;94640.28;;;14.00;100.00
20620;BME280;10469;42.720;23.252;2023-03-21T08:47:52;94650.19;;;13.85;100.00
20620;BME280;10469;42.720;23.252;2023-03-21T08:50:21;94649.16;;;13.96;100.00
20620;BME280;10469;42.720;23.252;2023-03-21T08:52:47;94645.31;;;13.81;100.00
20620;BME280;10469;42.720;23.252;2023-03-21T08:55:15;94646.63;;;13.74;100.00
20620;BME280;10469;42.720;23.252;2023-03-21T08:57:41;94652.69;;;14.01;100.00
20620;BME280;10469;42.720;23.252;2023-03-21T09:00:10;94656.44;;;14.94;98.48
20620;BME280;10469;42.720;23.252;2023-03-21T09:02:45;94649.97;;;15.46;96.80
20620;BME280;10469;42.720;23.252;2023-03-21T09:05:11;94642.38;;;14.61;97.92
20620;BME280;10469;42.720;23.252;2023-03-21T09:07:40;94627.28;;;14.55;98.24
20620;BME280;10469;42.720;23.252;2023-03-21T09:10:09;94635.13;;;14.77;98.47
20620;BME280;10469;42.720;23.252;2023-03-21T09:12:36;94629.72;;;14.87;98.03
20620;BME280;10469;42.720;23.252;2023-03-21T09:15:02;94632.88;;;14.43;99.49
20620;BME280;10469;42.720;23.252;2023-03-21T09:17:29;94634.69;;;14.22;99.18
20620;BME280;10469;42.720;23.252;2023-03-21T09:19:56;94613.94;;;14.33;99.57
20620;BME280;10469;42.720;23.252;2023-03-21T09:22:25;94614.88;;;14.79;98.57
20620;BME280;10469;42.720;23.252;2023-03-21T09:24:51;94613.81;;;14.91;96.87
20620;BME280;10469;42.720;23.252;2023-03-21T09:27:18;94605.69;;;15.16;95.03
20620;BME280;10469;42.720;23.252;2023-03-21T09:29:50;94613.78;;;15.06;91.38
20620;BME280;10469;42.720;23.252;2023-03-21T09:32:17;94590.59;;;14.90;90.65
20620;BME280;10469;42.720;23.252;2023-03-21T09:34:43;94600.41;;;15.91;89.35
20620;BME280;10469;42.720;23.252;2023-03-21T09:37:09;94601.31;;;15.56;88.97
20620;BME280;10469;42.720;23.252;2023-03-21T09:39:40;94595.47;;;16.09;86.88
20620;BME280;10469;42.720;23.252;2023-03-21T09:47:43;94602.94;;;15.67;88.44
20620;BME280;10469;42.720;23.252;2023-03-21T09:55:35;94582.81;;;15.99;85.29
20620;BME280;10469;42.720;23.252;2023-03-21T10:00:52;94583.59;;;16.04;84.61
20620;BME280;10469;42.720;23.252;2023-03-21T10:03:29;94576.88;;;16.86;80.36
20620;BME280;10469;42.720;23.252;2023-03-21T10:05:58;94573.41;;;17.14;76.78
20620;BME280;10469;42.720;23.252;2023-03-21T10:08:31;94557.81;;;16.62;76.34
20620;BME280;10469;42.720;23.252;2023-03-21T10:13:43;94568.25;;;18.75;70.63
20620;BME280;10469;42.720;23.252;2023-03-21T10:19:09;94563.53;;;18.81;70.21
20620;BME280;10469;42.720;23.252;2023-03-21T10:21:37;94565.28;;;19.23;67.73
20620;BME280;10469;42.720;23.252;2023-03-21T10:24:03;94547.16;;;19.19;66.09
20620;BME280;10469;42.720;23.252;2023-03-21T10:26:29;94546.25;;;21.06;59.55
20620;BME280;10469;42.720;23.252;2023-03-21T10:28:58;94553.50;;;19.88;62.69
20620;BME280;10469;42.720;23.252;2023-03-21T10:31:27;94555.94;;;22.05;56.94
20620;BME280;10469;42.720;23.252;2023-03-21T10:33:57;94533.72;;;23.34;48.54
20620;BME280;10469;42.720;23.252;2023-03-21T10:36:28;94526.09;;;23.48;48.10
20620;BME280;10469;42.720;23.252;2023-03-21T10:39:04;94543.28;;;23.01;46.26
20620;BME280;10469;42.720;23.252;2023-03-21T10:41:32;94545.97;;;21.61;47.37
20620;BME280;10469;42.720;23.252;2023-03-21T10:44:13;94553.44;;;22.26;47.20
20620;BME280;10469;42.720;23.252;2023-03-21T10:47:16;94549.66;;;19.75;50.74
20620;BME280;10469;42.720;23.252;2023-03-21T10:49:45;94557.91;;;20.75;51.70
20620;BME280;10469;42.720;23.252;2023-03-21T10:52:13;94558.22;;;20.10;52.96
20620;BME280;10469;42.720;23.252;2023-03-21T10:54:39;94535.56;;;21.10;50.59
20620;BME280;10469;42.720;23.252;2023-03-21T10:57:08;94557.00;;;22.36;47.79
20620;BME280;10469;42.720;23.252;2023-03-21T10:59:58;94538.25;;;22.60;45.26
20620;BME280;10469;42.720;23.252;2023-03-21T11:02:36;94546.47;;;22.95;44.92
20620;BME280;10469;42.720;23.252;2023-03-21T11:05:04;94519.41;;;23.28;41.13
20620;BME280;10469;42.720;23.252;2023-03-21T11:07:31;94531.44;;;22.32;43.48
20620;BME280;10469;42.720;23.252;2023-03-21T11:09:58;94513.22;;;22.10;42.14
20620;BME280;10469;42.720;23.252;2023-03-21T11:12:28;94517.31;;;22.21;42.51
20620;BME280;10469;42.720;23.252;2023-03-21T11:14:55;94519.34;;;22.07;43.85
20620;BME280;10469;42.720;23.252;2023-03-21T11:17:29;94516.38;;;22.43;43.98
20620;BME280;10469;42.720;23.252;2023-03-21T11:20:02;94502.06;;;22.89;42.41
20620;BME280;10469;42.720;23.252;2023-03-21T11:22:40;94512.81;;;23.20;42.66
20620;BME280;10469;42.720;23.252;2023-03-21T11:25:09;94478.13;;;22.95;42.50
20620;BME280;10469;42.720;23.252;2023-03-21T11:27:50;94503.22;;;21.96;44.41
20620;BME280;10469;42.720;23.252;2023-03-21T11:30:21;94497.59;;;22.50;42.30
20620;BME280;10469;42.720;23.252;2023-03-21T11:32:53;94490.78;;;22.21;42.18
20620;BME280;10469;42.720;23.252;2023-03-21T11:35:25;94475.16;;;21.47;44.06
20620;BME280;10469;42.720;23.252;2023-03-21T11:37:54;94488.44;;;21.40;44.71
20620;BME280;10469;42.720;23.252;2023-03-21T11:40:26;94480.63;;;20.71;47.10
20620;BME280;10469;42.720;23.252;2023-03-21T11:42:54;94482.47;;;20.62;47.75
20620;BME280;10469;42.720;23.252;2023-03-21T11:45:31;94480.00;;;20.97;45.48
20620;BME280;10469;42.720;23.252;2023-03-21T11:48:00;94480.31;;;20.37;46.73
20620;BME280;10469;42.720;23.252;2023-03-21T11:50:36;94462.88;;;20.38;45.67
20620;BME280;10469;42.720;23.252;2023-03-21T11:59:13;94463.78;;;20.33;46.49
20620;BME280;10469;42.720;23.252;2023-03-21T12:01:58;94464.78;;;20.37;46.72
20620;BME280;10469;42.720;23.252;2023-03-21T12:04:54;94465.47;;;20.07;47.01
20620;BME280;10469;42.720;23.252;2023-03-21T12:13:09;94464.94;;;19.68;48.62
20620;BME280;10469;42.720;23.252;2023-03-21T12:21:20;94455.06;;;19.72;49.39
20620;BME280;10469;42.720;23.252;2023-03-21T12:24:02;94446.56;;;19.60;48.24
20620;BME280;10469;42.720;23.252;2023-03-21T12:26:34;94452.00;;;18.91;49.61
20620;BME280;10469;42.720;23.252;2023-03-21T12:32:06;94445.75;;;18.58;47.15
20620;BME280;10469;42.720;23.252;2023-03-21T12:39:50;94428.25;;;18.97;47.05
20620;BME280;10469;42.720;23.252;2023-03-21T12:45:37;94426.06;;;19.26;44.87
20620;BME280;10469;42.720;23.252;2023-03-21T12:48:37;94414.75;;;18.92;45.00
20620;BME280;10469;42.720;23.252;2023-03-21T12:51:10;94417.31;;;18.37;47.04
20620;BME280;10469;42.720;23.252;2023-03-21T12:54:09;94418.91;;;18.38;46.36
20620;BME280;10469;42.720;23.252;2023-03-21T12:56:45;94416.75;;;18.53;46.08
20620;BME280;10469;42.720;23.252;2023-03-21T12:59:17;94414.31;;;18.71;47.19
20620;BME280;10469;42.720;23.252;2023-03-21T13:01:47;94411.41;;;18.81;47.34
20620;BME280;10469;42.720;23.252;2023-03-21T13:04:35;94402.91;;;18.69;47.45
20620;BME280;10469;42.720;23.252;2023-03-21T13:07:06;94403.50;;;18.98;46.83
20620;BME280;10469;42.720;23.252;2023-03-21T13:09:38;94400.53;;;18.16;48.68
20620;BME280;10469;42.720;23.252;2023-03-21T13:15:06;94384.31;;;18.62;47.29
20620;BME280;10469;42.720;23.252;2023-03-21T13:17:51;94393.63;;;18.23;47.74
20620;BME280;10469;42.720;23.252;2023-03-21T13:22:51;94391.84;;;18.33;48.17
20620;BME280;10469;42.720;23.252;2023-03-21T13:25:21;94401.09;;;17.80;49.05
20620;BME280;10469;42.720;23.252;2023-03-21T13:28:00;94386.31;;;17.67;49.87
20620;BME280;10469;42.720;23.252;2023-03-21T13:30:28;94376.69;;;17.56;49.67
20620;BME280;10469;42.720;23.252;2023-03-21T13:35:36;94383.88;;;17.47;52.56
20620;BME280;10469;42.720;23.252;2023-03-21T13:38:06;94379.28;;;17.66;50.84
20620;BME280;10469;42.720;23.252;2023-03-21T13:43:39;94379.38;;;17.80;51.61
20620;BME280;10469;42.720;23.252;2023-03-21T13:46:12;94357.00;;;17.50;52.24
20620;BME280;10469;42.720;23.252;2023-03-21T13:51:45;94373.84;;;18.04;52.26
20620;BME280;10469;42.720;23.252;2023-03-21T13:57:03;94371.88;;;17.91;52.88
20620;BME280;10469;42.720;23.252;2023-03-21T13:59:43;94373.31;;;17.88;53.13
20620;BME280;10469;42.720;23.252;2023-03-21T14:04:39;94363.00;;;17.28;54.94
20620;BME280;10469;42.720;23.252;2023-03-21T14:07:15;94365.28;;;17.40;55.89
20620;BME280;10469;42.720;23.252;2023-03-21T14:09:50;94350.09;;;17.20;55.92
20620;BME280;10469;42.720;23.252;2023-03-21T14:12:21;94369.28;;;17.00;56.95
20620;BME280;10469;42.720;23.252;2023-03-21T14:15:06;94352.13;;;16.86;57.65
20620;BME280;10469;42.720;23.252;2023-03-21T14:17:34;94354.22;;;16.94;58.91
20620;BME280;10469;42.720;23.252;2023-03-21T14:20:13;94359.16;;;17.11;58.90
20620;BME280;10469;42.720;23.252;2023-03-21T14:22:40;94357.41;;;16.96;59.81
20620;BME280;10469;42.720;23.252;2023-03-21T14:25:10;94361.16;;;17.00;59.42
20620;BME280;10469;42.720;23.252;2023-03-21T14:27:47;94353.34;;;16.98;59.19
20620;BME280;10469;42.720;23.252;2023-03-21T14:30:39;94360.72;;;16.93;60.36
20620;BME280;10469;42.720;23.252;2023-03-21T14:33:15;94365.31;;;16.92;60.72